Time,TemperatureF,DewpointF,PressureIn,WindDirection,WindDirectionDegrees,WindSpeedMPH,WindSpeedGustMPH,Humidity,HourlyPrecipIn,Conditions,Clouds,dailyrainin,SoftwareType,DateUTC
2013-11-18 00:04:00,56.8,56.0,29.83,SE,136,1.0,3.0,98,0.00,,,0.00,weatherlink.com 1.10,2013-11-18 05:04:00,
2013-11-18 00:19:00,56.7,56.0,29.82,SE,127,1.0,2.0,98,0.00,,,0.00,weatherlink.com 1.10,2013-11-18 05:19:00,
2013-11-18 00:34:00,57.0,57.0,29.82,SSE,168,1.0,2.0,98,0.00,,,0.00,weatherlink.com 1.10,2013-11-18 05:34:00,
2013-11-18 00:49:00,57.3,57.0,29.80,SE,134,2.0,3.0,98,0.00,,,0.00,weatherlink.com 1.10,2013-11-18 05:49:00,
2013-11-18 01:04:00,57.4,57.0,29.79,SE,127,1.0,3.0,98,0.00,,,0.00,weatherlink.com 1.10,2013-11-18 06:04:00,
2013-11-18 01:19:00,57.4,57.0,29.78,ESE,120,2.0,3.0,98,0.00,,,0.00,weatherlink.com 1.10,2013-11-18 06:19:00,
2013-11-18 01:34:00,57.3,57.0,29.77,ESE,114,2.0,4.0,98,0.00,,,0.00,weatherlink.com 1.10,2013-11-18 06:34:00,
2013-11-18 01:49:00,57.0,57.0,29.77,ESE,121,2.0,3.0,98,0.00,,,0.00,weatherlink.com 1.10,2013-11-18 06:49:00,
2013-11-18 02:04:00,-999.0,-99.9,29.77,North,-999,-999.0,-999.0,-999,0.00,,,0.00,weatherlink.com 1.10,2013-11-18 07:04:00,
2013-11-18 02:19:00,-999.0,-99.9,29.76,North,-999,-999.0,-999.0,-999,0.00,,,0.00,weatherlink.com 1.10,2013-11-18 07:19:00,
2013-11-18 02:34:00,-999.0,-99.9,29.75,North,-999,-999.0,-999.0,-999,0.00,,,0.00,weatherlink.com 1.10,2013-11-18 07:34:00,
2013-11-18 02:49:00,-999.0,-99.9,29.73,North,-999,-999.0,-999.0,-999,0.00,,,0.00,weatherlink.com 1.10,2013-11-18 07:49:00,
2013-11-18 03:04:00,-999.0,-99.9,29.72,North,-999,-999.0,-999.0,-999,0.00,,,0.00,weatherlink.com 1.10,2013-11-18 08:04:00,
2013-11-18 03:19:00,-999.0,-99.9,29.70,North,-999,-999.0,-999.0,-999,0.00,,,0.00,weatherlink.com 1.10,2013-11-18 08:19:00,
2013-11-18 03:34:00,-999.0,-99.9,29.69,North,-999,-999.0,-999.0,-999,0.00,,,0.00,weatherlink.com 1.10,2013-11-18 08:34:00,
2013-11-18 03:49:00,-999.0,-99.9,29.67,North,-999,-999.0,-999.0,-999,0.00,,,0.00,weatherlink.com 1.10,2013-11-18 08:49:00,
2013-11-18 04:04:00,-999.0,-99.9,29.65,North,-999,-999.0,-999.0,-999,0.00,,,0.00,weatherlink.com 1.10,2013-11-18 09:04:00,
2013-11-18 04:20:00,-999.0,-99.9,29.65,North,-999,-999.0,-999.0,-999,0.00,,,0.00,weatherlink.com 1.10,2013-11-18 09:20:00,
2013-11-18 04:35:00,-999.0,-99.9,29.63,North,-999,-999.0,-999.0,-999,0.00,,,0.00,weatherlink.com 1.10,2013-11-18 09:35:00,
2013-11-18 04:51:00,-999.0,-99.9,29.62,North,-999,-999.0,-999.0,-999,0.00,,,0.00,weatherlink.com 1.10,2013-11-18 09:51:00,
2013-11-18 05:05:00,-999.0,-99.9,29.61,North,-999,-999.0,-999.0,-999,0.00,,,0.00,weatherlink.com 1.10,2013-11-18 10:05:00,
2013-11-18 05:20:00,-999.0,-99.9,29.59,North,-999,-999.0,-999.0,-999,0.00,,,0.00,weatherlink.com 1.10,2013-11-18 10:20:00,
2013-11-18 05:35:00,-999.0,-99.9,29.60,North,-999,-999.0,-999.0,-999,0.00,,,0.00,weatherlink.com 1.10,2013-11-18 10:35:00,
2013-11-18 05:50:00,-999.0,-99.9,29.59,North,-999,-999.0,-999.0,-999,0.00,,,0.00,weatherlink.com 1.10,2013-11-18 10:50:00,
2013-11-18 06:05:00,-999.0,-99.9,29.60,North,-999,-999.0,-999.0,-999,0.00,,,0.00,weatherlink.com 1.10,2013-11-18 11:05:00,
2013-11-18 06:20:00,-999.0,-99.9,29.60,North,-999,-999.0,-999.0,-999,0.00,,,0.00,weatherlink.com 1.10,2013-11-18 11:20:00,
2013-11-18 06:35:00,-999.0,-99.9,29.62,North,-999,-999.0,-999.0,-999,0.00,,,0.00,weatherlink.com 1.10,2013-11-18 11:35:00,
2013-11-18 06:50:00,-999.0,-99.9,29.62,North,-999,-999.0,-999.0,-999,0.00,,,0.00,weatherlink.com 1.10,2013-11-18 11:50:00,
2013-11-18 07:05:00,-999.0,-99.9,29.61,North,-999,-999.0,-999.0,-999,0.00,,,0.00,weatherlink.com 1.10,2013-11-18 12:05:00,
2013-11-18 07:20:00,-999.0,-99.9,29.61,North,-999,-999.0,-999.0,-999,0.00,,,0.00,weatherlink.com 1.10,2013-11-18 12:20:00,
2013-11-18 07:35:00,-999.0,-99.9,29.61,North,-999,-999.0,-999.0,-999,0.00,,,0.00,weatherlink.com 1.10,2013-11-18 12:35:00,
2013-11-18 07:51:00,-999.0,-99.9,29.61,North,-999,-999.0,-999.0,-999,0.00,,,0.00,weatherlink.com 1.10,2013-11-18 12:51:00,
2013-11-18 08:06:00,56.2,55.0,29.62,SSE,150,5.0,8.0,97,0.00,,,0.00,weatherlink.com 1.10,2013-11-18 13:06:00,
2013-11-18 08:21:00,56.3,55.0,29.62,SW,229,6.0,11.0,94,0.00,,,0.00,weatherlink.com 1.10,2013-11-18 13:21:00,
2013-11-18 08:36:00,56.7,55.0,29.63,SW,232,5.0,9.0,92,0.00,,,0.00,weatherlink.com 1.10,2013-11-18 13:36:00,
2013-11-18 08:51:00,56.9,55.0,29.63,SSW,205,3.0,8.0,92,0.00,,,0.00,weatherlink.com 1.10,2013-11-18 13:51:00,
2013-11-18 09:06:00,56.9,54.0,29.62,SSW,205,3.0,8.0,91,0.00,,,0.00,weatherlink.com 1.10,2013-11-18 14:06:00,
2013-11-18 09:21:00,57.1,54.0,29.63,South,179,4.0,10.0,89,0.00,,,0.00,weatherlink.com 1.10,2013-11-18 14:21:00,
2013-11-18 09:36:00,57.9,54.0,29.63,SSW,203,6.0,7.0,88,0.00,,,0.00,weatherlink.com 1.10,2013-11-18 14:36:00,
2013-11-18 09:51:00,59.3,53.0,29.63,West,262,6.0,13.0,80,0.00,,,0.00,weatherlink.com 1.10,2013-11-18 14:51:00,
2013-11-18 10:06:00,60.5,53.0,29.63,SSW,208,6.0,9.0,76,0.00,,,0.00,weatherlink.com 1.10,2013-11-18 15:06:00,
2013-11-18 10:21:00,61.2,52.0,29.61,WSW,245,6.0,17.0,72,0.00,,,0.00,weatherlink.com 1.10,2013-11-18 15:21:00,
2013-11-18 10:36:00,60.8,51.0,29.61,SSW,198,6.0,15.0,70,0.00,,,0.00,weatherlink.com 1.10,2013-11-18 15:36:00,
2013-11-18 10:51:00,61.1,50.0,29.60,SW,229,8.0,17.0,67,0.00,,,0.00,weatherlink.com 1.10,2013-11-18 15:51:00,
2013-11-18 11:06:00,61.4,50.0,29.59,WSW,239,8.0,17.0,67,0.00,,,0.00,weatherlink.com 1.10,2013-11-18 16:06:00,
2013-11-18 11:21:00,61.5,50.0,29.59,SW,229,4.0,17.0,66,0.00,,,0.00,weatherlink.com 1.10,2013-11-18 16:21:00,
2013-11-18 11:36:00,62.0,51.0,29.58,SSW,207,8.0,11.0,67,0.00,,,0.00,weatherlink.com 1.10,2013-11-18 16:36:00,
2013-11-18 11:51:00,62.2,51.0,29.58,South,190,7.0,9.0,68,0.00,,,0.00,weatherlink.com 1.10,2013-11-18 16:51:00,
2013-11-18 12:06:00,61.7,51.0,29.58,SSW,211,7.0,11.0,67,0.00,,,0.00,weatherlink.com 1.10,2013-11-18 17:06:00,
2013-11-18 12:21:00,61.7,50.0,29.58,South,190,8.0,13.0,65,0.00,,,0.00,weatherlink.com 1.10,2013-11-18 17:21:00,
2013-11-18 12:36:00,61.8,49.0,29.58,SW,235,5.0,15.0,64,0.00,,,0.00,weatherlink.com 1.10,2013-11-18 17:36:00,
2013-11-18 12:51:00,62.1,49.0,29.59,West,260,15.0,19.0,63,0.00,,,0.00,weatherlink.com 1.10,2013-11-18 17:51:00,
2013-11-18 13:06:00,61.8,48.0,29.59,SW,221,6.0,18.0,60,0.00,,,0.00,weatherlink.com 1.10,2013-11-18 18:06:00,
2013-11-18 13:21:00,61.8,47.0,29.59,WSW,239,4.0,12.0,58,0.00,,,0.00,weatherlink.com 1.10,2013-11-18 18:21:00,
2013-11-18 13:49:00,62.2,47.0,29.58,SSW,193,4.0,11.0,57,0.00,,,0.00,weatherlink.com 1.10,2013-11-18 18:49:00,
2013-11-18 14:06:00,62.1,45.0,29.58,WNW,290,11.0,15.0,54,0.00,,,0.00,weatherlink.com 1.10,2013-11-18 19:06:00,
2013-11-18 14:21:00,62.0,44.0,29.58,West,262,7.0,13.0,53,0.00,,,0.00,weatherlink.com 1.10,2013-11-18 19:21:00,
2013-11-18 14:36:00,61.8,44.0,29.58,WSW,243,5.0,12.0,53,0.00,,,0.00,weatherlink.com 1.10,2013-11-18 19:36:00,
2013-11-18 14:51:00,61.8,43.0,29.58,SSW,201,2.0,11.0,51,0.00,,,0.00,weatherlink.com 1.10,2013-11-18 19:51:00,
2013-11-18 15:06:00,61.7,44.0,29.58,West,264,4.0,8.0,52,0.00,,,0.00,weatherlink.com 1.10,2013-11-18 20:06:00,
2013-11-18 15:36:00,59.6,46.0,29.58,SSW,193,5.0,8.0,62,0.00,,,0.00,weatherlink.com 1.10,2013-11-18 20:36:00,
2013-11-18 15:51:00,58.3,49.0,29.58,SW,218,3.0,7.0,70,0.00,,,0.00,weatherlink.com 1.10,2013-11-18 20:51:00,
2013-11-18 16:06:00,57.8,47.0,29.59,SSW,207,3.0,6.0,68,0.00,,,0.00,weatherlink.com 1.10,2013-11-18 21:06:00,
2013-11-18 16:21:00,56.7,49.0,29.59,SW,221,2.0,4.0,75,0.00,,,0.00,weatherlink.com 1.10,2013-11-18 21:21:00,
2013-11-18 16:36:00,55.9,51.0,29.59,SSW,212,2.0,4.0,83,0.00,,,0.00,weatherlink.com 1.10,2013-11-18 21:36:00,
2013-11-18 16:51:00,55.0,50.0,29.60,SW,231,2.0,5.0,84,0.00,,,0.00,weatherlink.com 1.10,2013-11-18 21:51:00,
2013-11-18 17:06:00,55.2,51.0,29.61,SSW,204,3.0,5.0,86,0.00,,,0.00,weatherlink.com 1.10,2013-11-18 22:06:00,
2013-11-18 17:21:00,54.8,51.0,29.61,SW,222,2.0,6.0,87,0.00,,,0.00,weatherlink.com 1.10,2013-11-18 22:21:00,
2013-11-18 17:36:00,55.2,51.0,29.61,SW,221,3.0,8.0,85,0.00,,,0.00,weatherlink.com 1.10,2013-11-18 22:36:00,
2013-11-18 17:51:00,54.8,50.0,29.62,SW,225,1.0,4.0,84,0.00,,,0.00,weatherlink.com 1.10,2013-11-18 22:51:00,
2013-11-18 18:07:00,54.2,50.0,29.61,SW,230,1.0,4.0,85,0.00,,,0.00,weatherlink.com 1.10,2013-11-18 23:07:00,
2013-11-18 18:22:00,53.2,49.0,29.61,SSW,207,2.0,4.0,86,0.00,,,0.00,weatherlink.com 1.10,2013-11-18 23:22:00,
2013-11-18 18:37:00,54.5,49.0,29.61,SSW,212,5.0,6.0,81,0.00,,,0.00,weatherlink.com 1.10,2013-11-18 23:37:00,
2013-11-18 18:52:00,54.3,49.0,29.61,WSW,239,4.0,6.0,83,0.00,,,0.00,weatherlink.com 1.10,2013-11-18 23:52:00,
2013-11-18 19:07:00,54.2,46.0,29.62,WSW,252,2.0,7.0,75,0.00,,,0.00,weatherlink.com 1.10,2013-11-19 00:07:00,
2013-11-18 19:22:00,54.8,44.0,29.62,WSW,244,2.0,9.0,68,0.00,,,0.00,weatherlink.com 1.10,2013-11-19 00:22:00,
2013-11-18 19:37:00,55.5,45.0,29.62,WSW,252,7.0,11.0,69,0.00,,,0.00,weatherlink.com 1.10,2013-11-19 00:37:00,
2013-11-18 19:52:00,55.7,46.0,29.62,WSW,248,4.0,13.0,70,0.00,,,0.00,weatherlink.com 1.10,2013-11-19 00:52:00,
2013-11-18 20:07:00,55.3,47.0,29.63,SW,217,3.0,11.0,73,0.00,,,0.00,weatherlink.com 1.10,2013-11-19 01:07:00,
2013-11-18 20:22:00,54.9,46.0,29.64,SW,226,3.0,6.0,72,0.00,,,0.00,weatherlink.com 1.10,2013-11-19 01:22:00,
2013-11-18 20:37:00,56.2,42.0,29.63,NW,312,6.0,13.0,59,0.00,,,0.00,weatherlink.com 1.10,2013-11-19 01:37:00,
2013-11-18 20:52:00,56.6,41.0,29.63,WSW,256,7.0,12.0,56,0.00,,,0.00,weatherlink.com 1.10,2013-11-19 01:52:00,
2013-11-18 21:07:00,56.5,40.0,29.64,WSW,249,6.0,12.0,55,0.00,,,0.00,weatherlink.com 1.10,2013-11-19 02:07:00,
2013-11-18 21:22:00,56.3,39.0,29.64,SW,222,9.0,15.0,53,0.00,,,0.00,weatherlink.com 1.10,2013-11-19 02:22:00,
2013-11-18 21:37:00,55.6,40.0,29.64,SW,228,3.0,9.0,56,0.00,,,0.00,weatherlink.com 1.10,2013-11-19 02:37:00,
2013-11-18 21:52:00,55.0,39.0,29.64,SW,219,1.0,9.0,55,0.00,,,0.00,weatherlink.com 1.10,2013-11-19 02:52:00,
2013-11-18 22:07:00,54.0,39.0,29.65,SW,219,1.0,8.0,57,0.00,,,0.00,weatherlink.com 1.10,2013-11-19 03:07:00,
2013-11-18 22:22:00,52.9,40.0,29.65,WSW,242,0.0,4.0,63,0.00,,,0.00,weatherlink.com 1.10,2013-11-19 03:22:00,
2013-11-18 22:37:00,53.4,40.0,29.65,SSE,159,3.0,7.0,61,0.00,,,0.00,weatherlink.com 1.10,2013-11-19 03:37:00,
2013-11-18 22:52:00,54.2,41.0,29.65,SW,232,3.0,13.0,61,0.00,,,0.00,weatherlink.com 1.10,2013-11-19 03:52:00,
2013-11-18 23:07:00,54.6,39.0,29.66,SW,226,5.0,11.0,55,0.00,,,0.00,weatherlink.com 1.10,2013-11-19 04:07:00,
2013-11-18 23:22:00,52.4,39.0,29.68,SSW,204,6.0,11.0,61,0.00,,,0.00,weatherlink.com 1.10,2013-11-19 04:22:00,
2013-11-18 23:37:00,51.2,39.0,29.68,SW,232,4.0,9.0,64,0.00,,,0.00,weatherlink.com 1.10,2013-11-19 04:37:00,
2013-11-18 23:52:00,50.8,38.0,29.68,WSW,243,5.0,7.0,63,0.00,,,0.00,weatherlink.com 1.10,2013-11-19 04:52:00,